sensor_id;sensor_type;location;lat;lon;timestamp;P1;durP1;ratioP1;P2;durP2;ratioP2
22318;SDS011;11327;52.334;9.506;2022-12-18T00:00:54;19.00;;;9.75;;
22318;SDS011;11327;52.334;9.506;2022-12-18T00:04:22;18.25;;;9.98;;
22318;SDS011;11327;52.334;9.506;2022-12-18T00:07:44;17.98;;;10.00;;
22318;SDS011;11327;52.334;9.506;2022-12-18T00:11:06;17.05;;;9.45;;
22318;SDS011;11327;52.334;9.506;2022-12-18T00:14:28;18.15;;;9.43;;
22318;SDS011;11327;52.334;9.506;2022-12-18T00:17:49;17.52;;;9.20;;
22318;SDS011;11327;52.334;9.506;2022-12-18T00:21:11;17.45;;;9.53;;
22318;SDS011;11327;52.334;9.506;2022-12-18T00:24:34;17.10;;;9.13;;
22318;SDS011;11327;52.334;9.506;2022-12-18T00:27:55;18.23;;;9.25;;
22318;SDS011;11327;52.334;9.506;2022-12-18T00:31:17;16.57;;;9.25;;
22318;SDS011;11327;52.334;9.506;2022-12-18T00:34:39;15.75;;;9.28;;
22318;SDS011;11327;52.334;9.506;2022-12-18T00:38:00;18.52;;;9.83;;
22318;SDS011;11327;52.334;9.506;2022-12-18T00:41:22;19.48;;;10.00;;
22318;SDS011;11327;52.334;9.506;2022-12-18T00:45:02;17.02;;;9.50;;
22318;SDS011;11327;52.334;9.506;2022-12-18T00:48:23;15.78;;;8.33;;
22318;SDS011;11327;52.334;9.506;2022-12-18T00:51:44;16.23;;;9.00;;
22318;SDS011;11327;52.334;9.506;2022-12-18T00:55:05;17.30;;;9.08;;
22318;SDS011;11327;52.334;9.506;2022-12-18T00:58:26;18.48;;;9.30;;
22318;SDS011;11327;52.334;9.506;2022-12-18T01:01:47;16.20;;;9.18;;
22318;SDS011;11327;52.334;9.506;2022-12-18T01:05:09;17.27;;;9.30;;
22318;SDS011;11327;52.334;9.506;2022-12-18T01:08:31;16.57;;;9.48;;
22318;SDS011;11327;52.334;9.506;2022-12-18T01:11:52;18.23;;;9.63;;
22318;SDS011;11327;52.334;9.506;2022-12-18T01:15:14;15.95;;;9.30;;
22318;SDS011;11327;52.334;9.506;2022-12-18T01:18:35;18.82;;;9.43;;
22318;SDS011;11327;52.334;9.506;2022-12-18T01:21:56;15.83;;;8.63;;
22318;SDS011;11327;52.334;9.506;2022-12-18T01:25:17;15.80;;;8.33;;
22318;SDS011;11327;52.334;9.506;2022-12-18T01:28:39;14.58;;;8.08;;
22318;SDS011;11327;52.334;9.506;2022-12-18T01:32:00;15.85;;;8.23;;
22318;SDS011;11327;52.334;9.506;2022-12-18T01:35:21;14.28;;;8.48;;
22318;SDS011;11327;52.334;9.506;2022-12-18T01:38:42;16.60;;;8.73;;
22318;SDS011;11327;52.334;9.506;2022-12-18T01:42:14;14.10;;;7.45;;
22318;SDS011;11327;52.334;9.506;2022-12-18T01:45:35;11.10;;;5.75;;
22318;SDS011;11327;52.334;9.506;2022-12-18T01:48:57;9.68;;;4.75;;
22318;SDS011;11327;52.334;9.506;2022-12-18T01:52:20;8.43;;;4.00;;
22318;SDS011;11327;52.334;9.506;2022-12-18T01:55:43;8.33;;;4.12;;
22318;SDS011;11327;52.334;9.506;2022-12-18T01:59:10;7.12;;;3.87;;
22318;SDS011;11327;52.334;9.506;2022-12-18T02:02:32;7.17;;;3.58;;
22318;SDS011;11327;52.334;9.506;2022-12-18T02:09:25;8.68;;;4.22;;
22318;SDS011;11327;52.334;9.506;2022-12-18T02:12:49;7.90;;;4.17;;
22318;SDS011;11327;52.334;9.506;2022-12-18T02:16:24;6.72;;;3.45;;
22318;SDS011;11327;52.334;9.506;2022-12-18T02:27:12;14.10;;;7.58;;
22318;SDS011;11327;52.334;9.506;2022-12-18T02:30:34;14.85;;;8.23;;
22318;SDS011;11327;52.334;9.506;2022-12-18T02:33:59;13.40;;;7.55;;
22318;SDS011;11327;52.334;9.506;2022-12-18T02:37:22;12.65;;;7.30;;
22318;SDS011;11327;52.334;9.506;2022-12-18T02:40:47;11.93;;;6.92;;
22318;SDS011;11327;52.334;9.506;2022-12-18T02:44:11;13.45;;;7.30;;
22318;SDS011;11327;52.334;9.506;2022-12-18T02:47:34;9.08;;;4.58;;
22318;SDS011;11327;52.334;9.506;2022-12-18T02:51:06;9.13;;;5.22;;
22318;SDS011;11327;52.334;9.506;2022-12-18T03:02:14;8.50;;;5.22;;
22318;SDS011;11327;52.334;9.506;2022-12-18T03:05:39;8.55;;;5.30;;
22318;SDS011;11327;52.334;9.506;2022-12-18T03:09:04;10.58;;;5.10;;
22318;SDS011;11327;52.334;9.506;2022-12-18T03:12:30;10.43;;;5.03;;
22318;SDS011;11327;52.334;9.506;2022-12-18T03:15:55;11.97;;;7.00;;
22318;SDS011;11327;52.334;9.506;2022-12-18T03:19:18;14.05;;;7.08;;
22318;SDS011;11327;52.334;9.506;2022-12-18T03:22:42;12.07;;;6.90;;
22318;SDS011;11327;52.334;9.506;2022-12-18T03:26:07;13.93;;;7.78;;
22318;SDS011;11327;52.334;9.506;2022-12-18T03:33:00;14.50;;;8.10;;
22318;SDS011;11327;52.334;9.506;2022-12-18T03:36:23;14.65;;;8.30;;
22318;SDS011;11327;52.334;9.506;2022-12-18T03:39:44;15.80;;;8.85;;
22318;SDS011;11327;52.334;9.506;2022-12-18T03:43:10;16.48;;;8.40;;
22318;SDS011;11327;52.334;9.506;2022-12-18T03:46:35;15.43;;;8.70;;
22318;SDS011;11327;52.334;9.506;2022-12-18T03:50:10;16.23;;;9.08;;
22318;SDS011;11327;52.334;9.506;2022-12-18T03:57:21;13.20;;;7.78;;
22318;SDS011;11327;52.334;9.506;2022-12-18T04:00:45;16.12;;;8.63;;
22318;SDS011;11327;52.334;9.506;2022-12-18T04:04:08;16.23;;;8.73;;
22318;SDS011;11327;52.334;9.506;2022-12-18T04:07:30;17.20;;;8.38;;
22318;SDS011;11327;52.334;9.506;2022-12-18T04:10:52;15.75;;;8.55;;
22318;SDS011;11327;52.334;9.506;2022-12-18T04:14:13;16.23;;;8.83;;
22318;SDS011;11327;52.334;9.506;2022-12-18T04:17:34;13.85;;;8.48;;
22318;SDS011;11327;52.334;9.506;2022-12-18T04:20:55;18.42;;;8.98;;
22318;SDS011;11327;52.334;9.506;2022-12-18T04:24:16;18.17;;;8.90;;
22318;SDS011;11327;52.334;9.506;2022-12-18T04:27:37;16.02;;;9.20;;
22318;SDS011;11327;52.334;9.506;2022-12-18T04:30:58;16.02;;;8.95;;
22318;SDS011;11327;52.334;9.506;2022-12-18T04:34:19;15.85;;;8.55;;
22318;SDS011;11327;52.334;9.506;2022-12-18T04:37:40;15.23;;;8.65;;
22318;SDS011;11327;52.334;9.506;2022-12-18T04:41:01;16.67;;;9.08;;
22318;SDS011;11327;52.334;9.506;2022-12-18T04:44:21;14.78;;;8.73;;
22318;SDS011;11327;52.334;9.506;2022-12-18T04:47:42;14.28;;;8.30;;
22318;SDS011;11327;52.334;9.506;2022-12-18T04:51:04;14.55;;;8.58;;
22318;SDS011;11327;52.334;9.506;2022-12-18T04:54:26;15.58;;;8.70;;
22318;SDS011;11327;52.334;9.506;2022-12-18T04:57:47;20.32;;;8.55;;
22318;SDS011;11327;52.334;9.506;2022-12-18T05:01:08;16.50;;;8.98;;
22318;SDS011;11327;52.334;9.506;2022-12-18T05:04:30;16.95;;;8.73;;
22318;SDS011;11327;52.334;9.506;2022-12-18T05:07:51;15.18;;;7.95;;
22318;SDS011;11327;52.334;9.506;2022-12-18T05:11:12;16.40;;;8.80;;
22318;SDS011;11327;52.334;9.506;2022-12-18T05:14:36;17.07;;;8.80;;
22318;SDS011;11327;52.334;9.506;2022-12-18T05:17:57;16.40;;;8.88;;
22318;SDS011;11327;52.334;9.506;2022-12-18T05:21:19;16.35;;;8.40;;
22318;SDS011;11327;52.334;9.506;2022-12-18T05:24:40;14.60;;;7.90;;
22318;SDS011;11327;52.334;9.506;2022-12-18T05:28:01;15.25;;;8.75;;
22318;SDS011;11327;52.334;9.506;2022-12-18T05:31:22;15.45;;;8.40;;
22318;SDS011;11327;52.334;9.506;2022-12-18T05:34:43;15.55;;;8.63;;
22318;SDS011;11327;52.334;9.506;2022-12-18T05:38:04;15.65;;;8.90;;
22318;SDS011;11327;52.334;9.506;2022-12-18T05:41:25;17.15;;;9.40;;
22318;SDS011;11327;52.334;9.506;2022-12-18T05:44:46;17.67;;;8.15;;
22318;SDS011;11327;52.334;9.506;2022-12-18T05:48:08;15.93;;;8.55;;
22318;SDS011;11327;52.334;9.506;2022-12-18T05:51:29;16.30;;;8.40;;
22318;SDS011;11327;52.334;9.506;2022-12-18T05:54:51;15.85;;;8.40;;
22318;SDS011;11327;52.334;9.506;2022-12-18T05:58:12;14.25;;;8.03;;
22318;SDS011;11327;52.334;9.506;2022-12-18T06:01:34;15.80;;;7.83;;
22318;SDS011;11327;52.334;9.506;2022-12-18T06:04:55;15.03;;;8.05;;
22318;SDS011;11327;52.334;9.506;2022-12-18T06:08:16;13.58;;;8.10;;
22318;SDS011;11327;52.334;9.506;2022-12-18T06:11:38;16.23;;;7.42;;
22318;SDS011;11327;52.334;9.506;2022-12-18T06:14:59;13.93;;;7.60;;
22318;SDS011;11327;52.334;9.506;2022-12-18T06:18:21;12.78;;;6.33;;
22318;SDS011;11327;52.334;9.506;2022-12-18T06:21:42;14.63;;;7.37;;
22318;SDS011;11327;52.334;9.506;2022-12-18T06:25:03;14.83;;;8.10;;
22318;SDS011;11327;52.334;9.506;2022-12-18T06:28:24;13.20;;;7.35;;
22318;SDS011;11327;52.334;9.506;2022-12-18T06:31:45;13.40;;;7.42;;
22318;SDS011;11327;52.334;9.506;2022-12-18T06:35:07;15.13;;;7.62;;
22318;SDS011;11327;52.334;9.506;2022-12-18T06:38:28;16.80;;;8.18;;
22318;SDS011;11327;52.334;9.506;2022-12-18T06:41:49;15.05;;;8.35;;
22318;SDS011;11327;52.334;9.506;2022-12-18T06:45:10;14.58;;;7.55;;
22318;SDS011;11327;52.334;9.506;2022-12-18T06:48:32;16.77;;;7.85;;
22318;SDS011;11327;52.334;9.506;2022-12-18T06:51:53;16.55;;;8.28;;
22318;SDS011;11327;52.334;9.506;2022-12-18T06:55:14;14.78;;;7.40;;
22318;SDS011;11327;52.334;9.506;2022-12-18T06:58:35;13.65;;;7.30;;
22318;SDS011;11327;52.334;9.506;2022-12-18T07:01:56;13.53;;;7.30;;
22318;SDS011;11327;52.334;9.506;2022-12-18T07:05:17;14.50;;;7.53;;
22318;SDS011;11327;52.334;9.506;2022-12-18T07:08:38;15.38;;;8.50;;
22318;SDS011;11327;52.334;9.506;2022-12-18T07:11:59;14.65;;;7.62;;
22318;SDS011;11327;52.334;9.506;2022-12-18T07:15:20;14.23;;;7.17;;
22318;SDS011;11327;52.334;9.506;2022-12-18T07:18:41;18.10;;;8.55;;
22318;SDS011;11327;52.334;9.506;2022-12-18T07:22:02;15.68;;;7.87;;
22318;SDS011;11327;52.334;9.506;2022-12-18T07:25:23;14.95;;;7.40;;
22318;SDS011;11327;52.334;9.506;2022-12-18T07:28:44;16.85;;;7.50;;
22318;SDS011;11327;52.334;9.506;2022-12-18T07:32:05;14.73;;;7.78;;
22318;SDS011;11327;52.334;9.506;2022-12-18T07:35:27;12.40;;;6.90;;
22318;SDS011;11327;52.334;9.506;2022-12-18T07:38:48;14.83;;;7.25;;
22318;SDS011;11327;52.334;9.506;2022-12-18T07:42:10;14.65;;;7.45;;
22318;SDS011;11327;52.334;9.506;2022-12-18T07:45:49;13.53;;;7.25;;
22318;SDS011;11327;52.334;9.506;2022-12-18T07:49:10;13.83;;;7.22;;
22318;SDS011;11327;52.334;9.506;2022-12-18T07:52:31;13.50;;;7.05;;
22318;SDS011;11327;52.334;9.506;2022-12-18T07:56:00;13.10;;;7.12;;
22318;SDS011;11327;52.334;9.506;2022-12-18T08:02:39;14.43;;;7.10;;
22318;SDS011;11327;52.334;9.506;2022-12-18T08:06:01;14.20;;;7.37;;
22318;SDS011;11327;52.334;9.506;2022-12-18T08:09:23;13.58;;;7.47;;
22318;SDS011;11327;52.334;9.506;2022-12-18T08:12:44;13.28;;;7.33;;
22318;SDS011;11327;52.334;9.506;2022-12-18T08:16:07;13.95;;;8.00;;
22318;SDS011;11327;52.334;9.506;2022-12-18T08:19:29;13.93;;;7.15;;
22318;SDS011;11327;52.334;9.506;2022-12-18T08:22:50;14.68;;;8.28;;
22318;SDS011;11327;52.334;9.506;2022-12-18T08:26:11;13.38;;;7.85;;
22318;SDS011;11327;52.334;9.506;2022-12-18T08:29:32;16.60;;;8.80;;
22318;SDS011;11327;52.334;9.506;2022-12-18T08:32:54;14.55;;;7.72;;
22318;SDS011;11327;52.334;9.506;2022-12-18T08:36:15;13.18;;;6.75;;
22318;SDS011;11327;52.334;9.506;2022-12-18T08:39:36;12.73;;;7.62;;
22318;SDS011;11327;52.334;9.506;2022-12-18T08:42:57;14.03;;;7.50;;
22318;SDS011;11327;52.334;9.506;2022-12-18T08:46:37;12.33;;;7.47;;
22318;SDS011;11327;52.334;9.506;2022-12-18T08:49:59;12.07;;;7.20;;
22318;SDS011;11327;52.334;9.506;2022-12-18T08:53:20;12.35;;;7.12;;
22318;SDS011;11327;52.334;9.506;2022-12-18T08:56:41;12.33;;;6.92;;
22318;SDS011;11327;52.334;9.506;2022-12-18T09:00:03;12.78;;;7.60;;
22318;SDS011;11327;52.334;9.506;2022-12-18T09:03:25;12.33;;;6.95;;
22318;SDS011;11327;52.334;9.506;2022-12-18T09:06:45;10.13;;;6.25;;
22318;SDS011;11327;52.334;9.506;2022-12-18T09:10:07;13.72;;;6.92;;
22318;SDS011;11327;52.334;9.506;2022-12-18T09:13:28;16.62;;;7.33;;
22318;SDS011;11327;52.334;9.506;2022-12-18T09:16:49;11.78;;;6.87;;
22318;SDS011;11327;52.334;9.506;2022-12-18T09:20:10;14.30;;;7.17;;
22318;SDS011;11327;52.334;9.506;2022-12-18T09:23:31;13.62;;;6.92;;
22318;SDS011;11327;52.334;9.506;2022-12-18T09:26:55;12.98;;;7.28;;
22318;SDS011;11327;52.334;9.506;2022-12-18T09:30:16;14.13;;;8.08;;
22318;SDS011;11327;52.334;9.506;2022-12-18T09:33:37;14.95;;;7.75;;
22318;SDS011;11327;52.334;9.506;2022-12-18T09:36:58;14.95;;;7.30;;
22318;SDS011;11327;52.334;9.506;2022-12-18T09:40:20;11.03;;;6.60;;
22318;SDS011;11327;52.334;9.506;2022-12-18T09:43:45;13.32;;;6.95;;
22318;SDS011;11327;52.334;9.506;2022-12-18T09:50:43;13.43;;;7.17;;
22318;SDS011;11327;52.334;9.506;2022-12-18T09:54:06;12.58;;;6.95;;
22318;SDS011;11327;52.334;9.506;2022-12-18T09:57:29;13.45;;;7.35;;
22318;SDS011;11327;52.334;9.506;2022-12-18T10:00:53;13.62;;;7.08;;
22318;SDS011;11327;52.334;9.506;2022-12-18T10:04:15;12.07;;;5.72;;
22318;SDS011;11327;52.334;9.506;2022-12-18T10:07:57;10.70;;;6.15;;
22318;SDS011;11327;52.334;9.506;2022-12-18T10:11:40;9.33;;;5.95;;
22318;SDS011;11327;52.334;9.506;2022-12-18T10:15:24;12.45;;;6.37;;
22318;SDS011;11327;52.334;9.506;2022-12-18T10:22:07;9.50;;;6.05;;
22318;SDS011;11327;52.334;9.506;2022-12-18T10:28:52;12.37;;;6.42;;
22318;SDS011;11327;52.334;9.506;2022-12-18T10:32:15;9.88;;;5.47;;
22318;SDS011;11327;52.334;9.506;2022-12-18T10:35:38;10.13;;;5.72;;
22318;SDS011;11327;52.334;9.506;2022-12-18T10:39:14;10.75;;;6.33;;
22318;SDS011;11327;52.334;9.506;2022-12-18T10:42:42;11.63;;;6.37;;
22318;SDS011;11327;52.334;9.506;2022-12-18T10:49:33;9.78;;;5.67;;
22318;SDS011;11327;52.334;9.506;2022-12-18T10:53:03;10.15;;;5.85;;
22318;SDS011;11327;52.334;9.506;2022-12-18T10:59:51;9.88;;;5.50;;
22318;SDS011;11327;52.334;9.506;2022-12-18T11:03:34;9.30;;;5.62;;
22318;SDS011;11327;52.334;9.506;2022-12-18T11:06:59;10.43;;;5.78;;
22318;SDS011;11327;52.334;9.506;2022-12-18T11:10:35;10.60;;;5.83;;
22318;SDS011;11327;52.334;9.506;2022-12-18T11:14:02;10.90;;;6.17;;
22318;SDS011;11327;52.334;9.506;2022-12-18T11:20:53;10.55;;;6.00;;
22318;SDS011;11327;52.334;9.506;2022-12-18T11:24:23;9.73;;;6.08;;
22318;SDS011;11327;52.334;9.506;2022-12-18T11:27:52;11.22;;;6.55;;
22318;SDS011;11327;52.334;9.506;2022-12-18T11:34:41;10.32;;;6.28;;
22318;SDS011;11327;52.334;9.506;2022-12-18T11:38:09;10.70;;;6.03;;
22318;SDS011;11327;52.334;9.506;2022-12-18T11:41:32;10.20;;;5.92;;
22318;SDS011;11327;52.334;9.506;2022-12-18T11:45:25;9.18;;;6.00;;
22318;SDS011;11327;52.334;9.506;2022-12-18T11:48:54;8.73;;;5.45;;
22318;SDS011;11327;52.334;9.506;2022-12-18T12:03:35;9.83;;;5.37;;
22318;SDS011;11327;52.334;9.506;2022-12-18T12:18:08;13.68;;;7.67;;
22318;SDS011;11327;52.334;9.506;2022-12-18T12:21:57;13.20;;;7.80;;
22318;SDS011;11327;52.334;9.506;2022-12-18T12:39:36;10.38;;;5.95;;
22318;SDS011;11327;52.334;9.506;2022-12-18T12:43:01;8.63;;;5.40;;
22318;SDS011;11327;52.334;9.506;2022-12-18T12:46:34;13.45;;;7.30;;
22318;SDS011;11327;52.334;9.506;2022-12-18T12:49:58;8.05;;;4.60;;
22318;SDS011;11327;52.334;9.506;2022-12-18T12:53:25;7.80;;;4.05;;
22318;SDS011;11327;52.334;9.506;2022-12-18T12:56:57;12.70;;;7.30;;
22318;SDS011;11327;52.334;9.506;2022-12-18T13:00:46;7.75;;;4.72;;
22318;SDS011;11327;52.334;9.506;2022-12-18T13:04:27;7.17;;;5.10;;
22318;SDS011;11327;52.334;9.506;2022-12-18T13:11:40;7.37;;;4.08;;
22318;SDS011;11327;52.334;9.506;2022-12-18T13:15:37;7.67;;;4.53;;
22318;SDS011;11327;52.334;9.506;2022-12-18T13:19:18;6.70;;;3.72;;
22318;SDS011;11327;52.334;9.506;2022-12-18T13:22:32;5.58;;;3.92;;
22318;SDS011;11327;52.334;9.506;2022-12-18T13:25:59;8.33;;;4.08;;
22318;SDS011;11327;52.334;9.506;2022-12-18T13:36:41;7.67;;;4.75;;
22318;SDS011;11327;52.334;9.506;2022-12-18T13:40:02;7.17;;;4.30;;
22318;SDS011;11327;52.334;9.506;2022-12-18T13:46:54;8.85;;;5.08;;
22318;SDS011;11327;52.334;9.506;2022-12-18T13:50:26;9.83;;;6.28;;
22318;SDS011;11327;52.334;9.506;2022-12-18T13:53:49;9.25;;;5.70;;
22318;SDS011;11327;52.334;9.506;2022-12-18T13:57:26;8.28;;;5.00;;
22318;SDS011;11327;52.334;9.506;2022-12-18T14:00:49;8.20;;;4.90;;
22318;SDS011;11327;52.334;9.506;2022-12-18T14:04:11;7.70;;;4.70;;
22318;SDS011;11327;52.334;9.506;2022-12-18T14:07:34;8.33;;;4.95;;
22318;SDS011;11327;52.334;9.506;2022-12-18T14:10:58;8.15;;;4.72;;
22318;SDS011;11327;52.334;9.506;2022-12-18T14:14:19;7.83;;;4.85;;
22318;SDS011;11327;52.334;9.506;2022-12-18T14:17:40;7.03;;;4.12;;
22318;SDS011;11327;52.334;9.506;2022-12-18T14:21:02;8.55;;;4.58;;
22318;SDS011;11327;52.334;9.506;2022-12-18T14:24:24;7.53;;;4.08;;
22318;SDS011;11327;52.334;9.506;2022-12-18T14:27:50;8.93;;;4.87;;
22318;SDS011;11327;52.334;9.506;2022-12-18T14:31:25;7.12;;;3.98;;
22318;SDS011;11327;52.334;9.506;2022-12-18T14:34:52;6.95;;;4.45;;
22318;SDS011;11327;52.334;9.506;2022-12-18T14:41:53;7.75;;;4.33;;
22318;SDS011;11327;52.334;9.506;2022-12-18T14:48:58;7.35;;;4.45;;
22318;SDS011;11327;52.334;9.506;2022-12-18T14:55:49;7.95;;;4.25;;
22318;SDS011;11327;52.334;9.506;2022-12-18T14:59:19;9.33;;;4.42;;
22318;SDS011;11327;52.334;9.506;2022-12-18T15:02:43;7.05;;;4.10;;
22318;SDS011;11327;52.334;9.506;2022-12-18T15:10:03;6.42;;;4.00;;
22318;SDS011;11327;52.334;9.506;2022-12-18T15:13:28;6.95;;;3.90;;
22318;SDS011;11327;52.334;9.506;2022-12-18T15:16:52;6.95;;;4.40;;
22318;SDS011;11327;52.334;9.506;2022-12-18T15:20:14;4.87;;;3.17;;
22318;SDS011;11327;52.334;9.506;2022-12-18T15:23:36;7.80;;;4.37;;
22318;SDS011;11327;52.334;9.506;2022-12-18T15:27:00;7.87;;;4.75;;
22318;SDS011;11327;52.334;9.506;2022-12-18T15:30:22;8.25;;;4.30;;
22318;SDS011;11327;52.334;9.506;2022-12-18T15:37:15;9.83;;;5.75;;
22318;SDS011;11327;52.334;9.506;2022-12-18T15:40:36;9.10;;;5.40;;
22318;SDS011;11327;52.334;9.506;2022-12-18T15:43:57;8.78;;;5.30;;
22318;SDS011;11327;52.334;9.506;2022-12-18T15:47:18;10.82;;;5.72;;
22318;SDS011;11327;52.334;9.506;2022-12-18T15:50:39;9.28;;;5.17;;
22318;SDS011;11327;52.334;9.506;2022-12-18T15:54:01;9.00;;;5.22;;
22318;SDS011;11327;52.334;9.506;2022-12-18T15:57:24;11.00;;;7.55;;
22318;SDS011;11327;52.334;9.506;2022-12-18T16:00:45;9.13;;;6.05;;
22318;SDS011;11327;52.334;9.506;2022-12-18T16:04:06;9.33;;;5.22;;
22318;SDS011;11327;52.334;9.506;2022-12-18T16:07:27;11.05;;;6.60;;
22318;SDS011;11327;52.334;9.506;2022-12-18T16:10:48;8.25;;;5.30;;
22318;SDS011;11327;52.334;9.506;2022-12-18T16:14:26;9.43;;;5.90;;
22318;SDS011;11327;52.334;9.506;2022-12-18T16:17:48;9.05;;;5.45;;
22318;SDS011;11327;52.334;9.506;2022-12-18T16:21:09;9.18;;;5.47;;
22318;SDS011;11327;52.334;9.506;2022-12-18T16:24:31;9.70;;;5.85;;
22318;SDS011;11327;52.334;9.506;2022-12-18T16:27:54;8.58;;;5.40;;
22318;SDS011;11327;52.334;9.506;2022-12-18T16:31:15;8.58;;;5.47;;
22318;SDS011;11327;52.334;9.506;2022-12-18T16:34:36;7.25;;;4.80;;
22318;SDS011;11327;52.334;9.506;2022-12-18T16:37:57;6.03;;;3.90;;
22318;SDS011;11327;52.334;9.506;2022-12-18T16:41:18;8.93;;;4.92;;
22318;SDS011;11327;52.334;9.506;2022-12-18T16:44:51;6.20;;;4.22;;
22318;SDS011;11327;52.334;9.506;2022-12-18T16:48:12;9.23;;;5.10;;
22318;SDS011;11327;52.334;9.506;2022-12-18T16:51:33;7.25;;;4.58;;
22318;SDS011;11327;52.334;9.506;2022-12-18T16:54:55;6.70;;;4.62;;
22318;SDS011;11327;52.334;9.506;2022-12-18T16:58:16;10.08;;;6.47;;
22318;SDS011;11327;52.334;9.506;2022-12-18T17:01:36;11.33;;;6.85;;
22318;SDS011;11327;52.334;9.506;2022-12-18T17:04:58;9.08;;;5.92;;
22318;SDS011;11327;52.334;9.506;2022-12-18T17:08:19;9.30;;;5.62;;
22318;SDS011;11327;52.334;9.506;2022-12-18T17:11:41;9.05;;;5.87;;
22318;SDS011;11327;52.334;9.506;2022-12-18T17:15:02;9.23;;;5.87;;
22318;SDS011;11327;52.334;9.506;2022-12-18T17:18:24;10.53;;;6.15;;
22318;SDS011;11327;52.334;9.506;2022-12-18T17:21:47;9.00;;;5.62;;
22318;SDS011;11327;52.334;9.506;2022-12-18T17:25:09;8.18;;;5.87;;
22318;SDS011;11327;52.334;9.506;2022-12-18T17:28:30;9.38;;;5.83;;
22318;SDS011;11327;52.334;9.506;2022-12-18T17:31:51;10.55;;;5.83;;
22318;SDS011;11327;52.334;9.506;2022-12-18T17:35:12;10.13;;;5.92;;
22318;SDS011;11327;52.334;9.506;2022-12-18T17:38:33;12.33;;;6.85;;
22318;SDS011;11327;52.334;9.506;2022-12-18T17:41:55;12.68;;;6.80;;
22318;SDS011;11327;52.334;9.506;2022-12-18T17:45:16;9.53;;;5.40;;
22318;SDS011;11327;52.334;9.506;2022-12-18T17:48:37;9.93;;;5.83;;
22318;SDS011;11327;52.334;9.506;2022-12-18T17:51:59;10.03;;;6.25;;
22318;SDS011;11327;52.334;9.506;2022-12-18T17:55:20;8.78;;;5.67;;
22318;SDS011;11327;52.334;9.506;2022-12-18T17:58:41;10.25;;;6.00;;
22318;SDS011;11327;52.334;9.506;2022-12-18T18:02:02;11.65;;;6.10;;
22318;SDS011;11327;52.334;9.506;2022-12-18T18:05:23;12.35;;;6.30;;
22318;SDS011;11327;52.334;9.506;2022-12-18T18:08:44;12.68;;;8.28;;
22318;SDS011;11327;52.334;9.506;2022-12-18T18:12:05;14.18;;;7.95;;
22318;SDS011;11327;52.334;9.506;2022-12-18T18:15:53;16.65;;;9.05;;
22318;SDS011;11327;52.334;9.506;2022-12-18T18:19:11;11.95;;;7.60;;
22318;SDS011;11327;52.334;9.506;2022-12-18T18:22:34;11.60;;;7.12;;
22318;SDS011;11327;52.334;9.506;2022-12-18T18:25:55;13.80;;;8.55;;
22318;SDS011;11327;52.334;9.506;2022-12-18T18:29:21;13.45;;;7.65;;
22318;SDS011;11327;52.334;9.506;2022-12-18T18:32:40;12.35;;;7.67;;
22318;SDS011;11327;52.334;9.506;2022-12-18T18:36:01;10.15;;;6.37;;
22318;SDS011;11327;52.334;9.506;2022-12-18T18:39:23;11.97;;;7.08;;
22318;SDS011;11327;52.334;9.506;2022-12-18T18:42:43;12.43;;;7.85;;
22318;SDS011;11327;52.334;9.506;2022-12-18T18:46:05;11.53;;;6.80;;
22318;SDS011;11327;52.334;9.506;2022-12-18T18:49:26;12.70;;;7.12;;
22318;SDS011;11327;52.334;9.506;2022-12-18T18:52:47;12.23;;;6.87;;
22318;SDS011;11327;52.334;9.506;2022-12-18T18:56:09;12.45;;;7.12;;
22318;SDS011;11327;52.334;9.506;2022-12-18T18:59:32;10.80;;;6.28;;
22318;SDS011;11327;52.334;9.506;2022-12-18T19:02:53;11.15;;;6.58;;
22318;SDS011;11327;52.334;9.506;2022-12-18T19:06:22;12.98;;;7.05;;
22318;SDS011;11327;52.334;9.506;2022-12-18T19:09:43;10.95;;;6.53;;
22318;SDS011;11327;52.334;9.506;2022-12-18T19:13:04;12.70;;;6.83;;
22318;SDS011;11327;52.334;9.506;2022-12-18T19:16:40;13.18;;;7.80;;
22318;SDS011;11327;52.334;9.506;2022-12-18T19:20:03;12.80;;;7.90;;
22318;SDS011;11327;52.334;9.506;2022-12-18T19:23:24;13.13;;;7.83;;
22318;SDS011;11327;52.334;9.506;2022-12-18T19:26:45;13.13;;;8.28;;
22318;SDS011;11327;52.334;9.506;2022-12-18T19:30:07;13.88;;;7.62;;
22318;SDS011;11327;52.334;9.506;2022-12-18T19:33:29;13.62;;;7.47;;
22318;SDS011;11327;52.334;9.506;2022-12-18T19:36:52;12.80;;;7.83;;
22318;SDS011;11327;52.334;9.506;2022-12-18T19:40:13;12.68;;;8.10;;
22318;SDS011;11327;52.334;9.506;2022-12-18T19:43:37;15.43;;;8.70;;
22318;SDS011;11327;52.334;9.506;2022-12-18T19:46:58;14.30;;;7.67;;
22318;SDS011;11327;52.334;9.506;2022-12-18T19:50:19;12.75;;;7.78;;
22318;SDS011;11327;52.334;9.506;2022-12-18T19:53:40;15.60;;;7.25;;
22318;SDS011;11327;52.334;9.506;2022-12-18T19:57:01;15.35;;;7.87;;
22318;SDS011;11327;52.334;9.506;2022-12-18T20:00:24;15.93;;;9.20;;
22318;SDS011;11327;52.334;9.506;2022-12-18T20:03:45;14.65;;;8.40;;
22318;SDS011;11327;52.334;9.506;2022-12-18T20:07:06;12.25;;;7.75;;
22318;SDS011;11327;52.334;9.506;2022-12-18T20:10:27;13.98;;;8.00;;
22318;SDS011;11327;52.334;9.506;2022-12-18T20:13:48;11.95;;;7.05;;
22318;SDS011;11327;52.334;9.506;2022-12-18T20:17:10;16.20;;;9.48;;
22318;SDS011;11327;52.334;9.506;2022-12-18T20:20:31;14.05;;;7.60;;
22318;SDS011;11327;52.334;9.506;2022-12-18T20:23:52;15.13;;;8.35;;
22318;SDS011;11327;52.334;9.506;2022-12-18T20:27:14;15.53;;;8.78;;
22318;SDS011;11327;52.334;9.506;2022-12-18T20:30:36;14.58;;;8.68;;
22318;SDS011;11327;52.334;9.506;2022-12-18T20:33:56;15.05;;;8.35;;
22318;SDS011;11327;52.334;9.506;2022-12-18T20:37:18;14.83;;;8.55;;
22318;SDS011;11327;52.334;9.506;2022-12-18T20:40:39;13.35;;;7.35;;
22318;SDS011;11327;52.334;9.506;2022-12-18T20:44:01;12.65;;;7.67;;
22318;SDS011;11327;52.334;9.506;2022-12-18T20:47:22;13.55;;;7.97;;
22318;SDS011;11327;52.334;9.506;2022-12-18T20:50:43;14.60;;;8.20;;
22318;SDS011;11327;52.334;9.506;2022-12-18T20:54:04;15.43;;;7.92;;
22318;SDS011;11327;52.334;9.506;2022-12-18T20:57:26;14.80;;;8.05;;
22318;SDS011;11327;52.334;9.506;2022-12-18T21:00:47;14.03;;;7.65;;
22318;SDS011;11327;52.334;9.506;2022-12-18T21:04:08;15.13;;;7.67;;
22318;SDS011;11327;52.334;9.506;2022-12-18T21:07:29;16.20;;;7.87;;
22318;SDS011;11327;52.334;9.506;2022-12-18T21:10:50;14.65;;;7.83;;
22318;SDS011;11327;52.334;9.506;2022-12-18T21:14:12;14.00;;;7.97;;
22318;SDS011;11327;52.334;9.506;2022-12-18T21:17:35;19.77;;;9.13;;
22318;SDS011;11327;52.334;9.506;2022-12-18T21:20:56;14.05;;;8.30;;
22318;SDS011;11327;52.334;9.506;2022-12-18T21:24:17;16.82;;;8.38;;
22318;SDS011;11327;52.334;9.506;2022-12-18T21:27:39;17.90;;;8.90;;
22318;SDS011;11327;52.334;9.506;2022-12-18T21:31:00;15.70;;;8.45;;
22318;SDS011;11327;52.334;9.506;2022-12-18T21:34:22;18.50;;;9.65;;
22318;SDS011;11327;52.334;9.506;2022-12-18T21:37:45;19.92;;;9.63;;
22318;SDS011;11327;52.334;9.506;2022-12-18T21:41:07;17.70;;;9.33;;
22318;SDS011;11327;52.334;9.506;2022-12-18T21:44:29;21.07;;;9.38;;
22318;SDS011;11327;52.334;9.506;2022-12-18T21:47:50;17.82;;;9.20;;
22318;SDS011;11327;52.334;9.506;2022-12-18T21:51:11;17.32;;;8.93;;
22318;SDS011;11327;52.334;9.506;2022-12-18T21:54:32;19.30;;;9.78;;
22318;SDS011;11327;52.334;9.506;2022-12-18T21:57:53;17.55;;;9.68;;
22318;SDS011;11327;52.334;9.506;2022-12-18T22:01:14;17.25;;;9.30;;
22318;SDS011;11327;52.334;9.506;2022-12-18T22:04:35;19.37;;;9.80;;
22318;SDS011;11327;52.334;9.506;2022-12-18T22:07:56;16.85;;;8.98;;
22318;SDS011;11327;52.334;9.506;2022-12-18T22:11:17;18.15;;;10.08;;
22318;SDS011;11327;52.334;9.506;2022-12-18T22:14:38;18.10;;;9.88;;